createdAt,value
2022-08-03T00:00:31.217Z,2.80
2022-08-03T00:02:58.723Z,2.35
2022-08-03T00:05:26.155Z,1.98
2022-08-03T00:07:53.515Z,2.17
2022-08-03T00:10:20.917Z,2.72
2022-08-03T00:12:48.295Z,2.80
2022-08-03T00:15:16.834Z,2.50
2022-08-03T00:17:52.384Z,3.20
2022-08-03T00:20:20.517Z,2.85
2022-08-03T00:22:47.892Z,2.83
2022-08-03T00:25:15.308Z,2.65
2022-08-03T00:27:42.681Z,2.50
2022-08-03T00:30:10.262Z,2.42
2022-08-03T00:32:38.860Z,2.60
2022-08-03T00:35:18.298Z,2.70
2022-08-03T00:37:59.957Z,2.63
2022-08-03T00:40:27.774Z,2.58
2022-08-03T00:42:56.875Z,2.42
2022-08-03T00:45:28.901Z,2.55
2022-08-03T00:47:56.595Z,2.72
2022-08-03T00:50:24.937Z,3.03
2022-08-03T00:52:56.728Z,2.40
2022-08-03T00:55:24.444Z,2.67
2022-08-03T00:57:52.185Z,2.58
2022-08-03T01:00:21.295Z,2.58
2022-08-03T01:02:50.496Z,2.78
2022-08-03T01:05:17.918Z,2.85
2022-08-03T01:07:51.399Z,2.95
2022-08-03T01:10:33.262Z,2.50
2022-08-03T01:13:04.982Z,3.35
2022-08-03T01:15:32.414Z,2.28
2022-08-03T01:18:02.599Z,2.65
2022-08-03T01:20:33.658Z,2.53
2022-08-03T01:23:03.819Z,2.55
2022-08-03T01:25:34.176Z,2.53
2022-08-03T01:28:01.513Z,2.90
2022-08-03T01:30:30.973Z,2.70
2022-08-03T01:33:03.541Z,2.28
2022-08-03T01:35:31.147Z,2.95
2022-08-03T01:38:01.848Z,2.90
2022-08-03T01:40:29.592Z,2.67
2022-08-03T01:42:58.427Z,2.42
2022-08-03T01:45:25.988Z,2.95
2022-08-03T01:47:54.309Z,3.17
2022-08-03T01:50:23.562Z,3.03
2022-08-03T01:52:51.429Z,3.13
2022-08-03T01:55:20.319Z,2.47
2022-08-03T01:58:05.316Z,3.20
2022-08-03T02:00:34.146Z,3.30
2022-08-03T02:03:02.686Z,3.15
2022-08-03T02:05:31.082Z,2.83
2022-08-03T02:07:59.454Z,2.88
2022-08-03T02:10:34.660Z,3.05
2022-08-03T02:13:03.857Z,3.05
2022-08-03T02:15:31.436Z,2.97
2022-08-03T02:17:59.497Z,2.83
2022-08-03T02:20:27.817Z,2.80
2022-08-03T02:22:55.366Z,3.10
2022-08-03T02:25:22.843Z,2.97
2022-08-03T02:27:55.503Z,3.20
2022-08-03T02:30:23.548Z,3.28
2022-08-03T02:32:55.461Z,3.13
2022-08-03T02:35:24.553Z,3.00
2022-08-03T02:37:53.929Z,3.22
2022-08-03T02:40:23.914Z,2.60
2022-08-03T02:42:54.372Z,2.92
2022-08-03T02:45:21.906Z,3.20
2022-08-03T02:47:53.519Z,3.08
2022-08-03T02:50:23.230Z,3.08
2022-08-03T02:52:52.005Z,3.20
2022-08-03T02:55:21.210Z,2.83
2022-08-03T02:57:49.197Z,3.10
2022-08-03T03:00:27.084Z,2.60
2022-08-03T03:02:57.575Z,2.88
2022-08-03T03:05:55.856Z,3.45
2022-08-03T03:08:18.783Z,3.15
2022-08-03T03:10:48.755Z,2.83
2022-08-03T03:13:22.074Z,2.92
2022-08-03T03:15:50.034Z,3.08
2022-08-03T03:18:22.330Z,2.88
2022-08-03T03:20:50.601Z,3.20
2022-08-03T03:23:18.389Z,3.05
2022-08-03T03:25:45.822Z,2.95
2022-08-03T03:28:13.365Z,3.20
2022-08-03T03:30:40.746Z,2.72
2022-08-03T03:33:08.653Z,3.03
2022-08-03T03:35:38.734Z,3.10
2022-08-03T03:38:07.262Z,3.33
2022-08-03T03:40:36.071Z,3.05
2022-08-03T03:43:03.793Z,2.83
2022-08-03T03:45:31.951Z,2.83
2022-08-03T03:48:00.994Z,2.90
2022-08-03T03:50:28.712Z,2.92
2022-08-03T03:52:56.168Z,3.20
2022-08-03T03:55:23.667Z,3.00
2022-08-03T03:57:51.234Z,2.72
2022-08-03T04:00:19.414Z,3.10
2022-08-03T04:02:47.004Z,2.80
2022-08-03T04:05:33.457Z,3.05
2022-08-03T04:08:21.047Z,3.28
2022-08-03T04:11:01.588Z,3.28
2022-08-03T04:13:37.106Z,3.03
2022-08-03T04:16:06.528Z,3.22
2022-08-03T04:18:35.417Z,3.03
2022-08-03T04:21:04.837Z,3.08
2022-08-03T04:23:34.697Z,3.28
2022-08-03T04:26:03.964Z,3.10
2022-08-03T04:28:32.250Z,2.97
2022-08-03T04:31:04.366Z,2.90
2022-08-03T04:33:35.366Z,3.35
2022-08-03T04:36:06.130Z,3.15
2022-08-03T04:38:36.346Z,3.30
2022-08-03T04:41:03.916Z,3.40
2022-08-03T04:43:33.633Z,3.20
2022-08-03T04:46:02.151Z,3.30
2022-08-03T04:48:29.738Z,3.10
2022-08-03T04:50:57.413Z,3.38
2022-08-03T04:53:24.873Z,3.20
2022-08-03T04:55:52.266Z,3.00
2022-08-03T04:58:19.707Z,3.20
2022-08-03T05:00:51.159Z,3.22
2022-08-03T05:03:20.517Z,3.30
2022-08-03T05:05:52.525Z,3.25
2022-08-03T05:08:27.813Z,3.38
2022-08-03T05:10:59.073Z,3.00
2022-08-03T05:13:26.865Z,3.28
2022-08-03T05:15:54.425Z,3.40
2022-08-03T05:18:22.620Z,3.70
2022-08-03T05:20:50.062Z,3.30
2022-08-03T05:23:17.494Z,3.30
2022-08-03T05:25:49.964Z,3.50
2022-08-03T05:28:17.875Z,3.30
2022-08-03T05:30:45.246Z,3.20
2022-08-03T05:33:12.674Z,3.45
2022-08-03T05:35:57.187Z,3.17
2022-08-03T05:38:28.486Z,3.60
2022-08-03T05:41:22.230Z,3.50
2022-08-03T05:43:44.319Z,2.85
2022-08-03T05:46:13.173Z,3.35
2022-08-03T05:48:41.253Z,3.20
2022-08-03T05:51:11.954Z,3.28
2022-08-03T05:53:40.602Z,3.85
2022-08-03T05:56:14.203Z,3.53
2022-08-03T05:58:47.003Z,3.70
2022-08-03T06:01:15.165Z,3.47
2022-08-03T06:03:42.729Z,3.50
2022-08-03T06:06:11.466Z,3.60
2022-08-03T06:08:39.117Z,3.40
2022-08-03T06:11:06.555Z,3.55
2022-08-03T06:13:33.974Z,3.58
2022-08-03T06:16:01.414Z,3.70
2022-08-03T06:18:28.888Z,3.22
2022-08-03T06:20:56.307Z,3.80
2022-08-03T06:23:52.501Z,3.53
2022-08-03T06:26:12.117Z,3.42
2022-08-03T06:28:53.118Z,3.63
2022-08-03T06:31:22.920Z,4.32
2022-08-03T06:34:33.441Z,4.03
2022-08-03T06:36:37.950Z,3.42
2022-08-03T06:39:05.502Z,3.50
2022-08-03T06:41:38.071Z,3.05
2022-08-03T06:44:12.343Z,3.50
2022-08-03T06:46:39.962Z,3.53
2022-08-03T06:49:08.095Z,3.83
2022-08-03T06:52:03.966Z,3.53
2022-08-03T06:54:24.520Z,3.47
2022-08-03T06:56:52.064Z,3.33
2022-08-03T07:00:08.851Z,3.50
2022-08-03T07:02:07.064Z,3.70
2022-08-03T07:04:34.602Z,3.42
2022-08-03T07:07:02.055Z,3.58
2022-08-03T07:09:29.495Z,3.10
2022-08-03T07:11:57.242Z,2.83
2022-08-03T07:14:24.594Z,3.33
2022-08-03T07:16:51.949Z,2.70
2022-08-03T07:19:19.428Z,2.78
2022-08-03T07:21:49.528Z,3.17
2022-08-03T07:24:21.020Z,3.78
2022-08-03T07:26:48.427Z,2.83
2022-08-03T07:29:15.813Z,2.70
2022-08-03T07:31:43.334Z,3.13
2022-08-03T07:34:10.762Z,2.85
2022-08-03T07:36:38.233Z,2.80
2022-08-03T07:39:15.420Z,3.20
2022-08-03T07:41:45.522Z,3.00
2022-08-03T07:44:12.944Z,3.22
2022-08-03T07:46:40.386Z,2.90
2022-08-03T07:49:07.848Z,2.97
2022-08-03T07:51:35.270Z,2.50
2022-08-03T07:54:02.862Z,2.90
2022-08-03T07:56:30.396Z,2.70
2022-08-03T07:58:58.258Z,3.00
2022-08-03T08:01:25.873Z,3.08
2022-08-03T08:03:53.814Z,3.10
2022-08-03T08:06:21.547Z,3.45
2022-08-03T08:08:49.009Z,2.90
2022-08-03T08:11:16.595Z,3.20
2022-08-03T08:13:43.969Z,3.00
2022-08-03T08:16:11.654Z,3.00
2022-08-03T08:18:39.087Z,3.00
2022-08-03T08:21:06.986Z,3.00
2022-08-03T08:23:42.884Z,2.80
2022-08-03T08:26:11.832Z,3.10
2022-08-03T08:28:39.368Z,2.80
2022-08-03T08:31:06.867Z,2.78
2022-08-03T08:34:04.737Z,2.33
2022-08-03T08:36:24.343Z,2.53
2022-08-03T08:38:51.895Z,2.58
2022-08-03T08:41:19.593Z,2.67
2022-08-03T08:43:46.967Z,2.40
2022-08-03T08:46:22.857Z,2.50
2022-08-03T08:48:52.257Z,2.75
2022-08-03T08:51:20.799Z,2.83
2022-08-03T08:53:53.919Z,2.50
2022-08-03T08:56:25.643Z,2.65
2022-08-03T08:58:53.996Z,2.83
2022-08-03T09:01:22.038Z,2.80
2022-08-03T09:03:50.277Z,2.60
2022-08-03T09:06:18.156Z,2.97
2022-08-03T09:08:45.576Z,2.70
2022-08-03T09:11:13.146Z,2.88
2022-08-03T09:13:40.577Z,3.00
2022-08-03T09:16:12.146Z,2.70
2022-08-03T09:18:39.823Z,2.40
2022-08-03T09:21:31.766Z,2.80
2022-08-03T09:24:03.195Z,2.47
2022-08-03T09:26:32.482Z,2.80
2022-08-03T09:29:04.879Z,2.47
2022-08-03T09:31:43.583Z,2.60
2022-08-03T09:34:12.516Z,2.42
2022-08-03T09:36:47.422Z,2.30
2022-08-03T09:39:16.262Z,2.35
2022-08-03T09:41:48.286Z,2.20
2022-08-03T09:44:24.391Z,2.40
2022-08-03T09:46:56.784Z,2.40
2022-08-03T09:49:25.448Z,2.50
2022-08-03T09:52:31.607Z,2.10
2022-08-03T09:54:41.960Z,2.60
2022-08-03T09:57:09.501Z,2.22
2022-08-03T09:59:39.222Z,2.20
2022-08-03T10:02:21.109Z,2.47
2022-08-03T10:04:52.045Z,2.20
2022-08-03T10:07:20.669Z,2.25
2022-08-03T10:09:58.680Z,2.38
2022-08-03T10:12:48.241Z,2.30
2022-08-03T10:16:21.971Z,2.20
2022-08-03T10:18:04.071Z,2.25
2022-08-03T10:20:32.926Z,2.20
2022-08-03T10:23:01.115Z,2.25
2022-08-03T10:25:32.934Z,2.45
2022-08-03T10:28:04.548Z,1.90
2022-08-03T10:30:33.113Z,2.10
2022-08-03T10:33:00.471Z,2.13
2022-08-03T10:35:27.931Z,2.22
2022-08-03T10:38:01.512Z,2.17
2022-08-03T10:43:28.395Z,2.17
2022-08-03T10:45:56.423Z,2.25
2022-08-03T10:48:24.301Z,2.55
2022-08-03T10:50:51.862Z,2.15
2022-08-03T10:53:35.045Z,2.33
2022-08-03T10:56:45.127Z,2.40
2022-08-03T10:59:27.571Z,2.30
2022-08-03T11:02:01.074Z,2.00
2022-08-03T11:04:30.144Z,2.30
2022-08-03T11:07:27.071Z,2.25
2022-08-03T11:09:57.508Z,2.47
2022-08-03T11:12:31.413Z,2.20
2022-08-03T11:15:04.482Z,2.40
2022-08-03T11:17:33.201Z,2.22
2022-08-03T11:20:00.702Z,2.42
2022-08-03T11:22:48.048Z,2.05
2022-08-03T11:25:53.171Z,2.15
2022-08-03T11:28:22.649Z,2.50
2022-08-03T11:30:52.901Z,2.20
2022-08-03T11:33:33.003Z,2.47
2022-08-03T11:36:01.743Z,2.38
2022-08-03T11:38:29.242Z,2.28
2022-08-03T11:40:56.721Z,2.30
2022-08-03T11:43:26.678Z,2.20
2022-08-03T11:45:59.378Z,2.10
2022-08-03T11:48:28.145Z,2.17
2022-08-03T11:50:55.717Z,2.38
2022-08-03T11:53:23.195Z,2.03
2022-08-03T11:55:50.613Z,2.47
2022-08-03T11:59:01.772Z,2.10
2022-08-03T12:01:11.516Z,2.08
2022-08-03T12:03:39.046Z,2.28
2022-08-03T12:06:10.115Z,2.40
2022-08-03T12:08:37.514Z,2.15
2022-08-03T12:11:06.859Z,2.40
2022-08-03T12:14:05.774Z,2.15
2022-08-03T12:16:29.765Z,2.20
2022-08-03T12:19:04.991Z,1.90
2022-08-03T12:21:32.584Z,2.10
2022-08-03T12:24:01.290Z,2.25
2022-08-03T12:26:29.380Z,2.33
2022-08-03T12:28:57.402Z,2.42
2022-08-03T12:31:25.191Z,1.88
2022-08-03T12:33:59.227Z,2.30
2022-08-03T12:36:27.068Z,2.05
2022-08-03T12:38:58.381Z,2.15
2022-08-03T12:41:30.519Z,2.25
2022-08-03T12:43:58.002Z,1.80
2022-08-03T12:46:30.392Z,2.10
2022-08-03T12:49:01.040Z,2.10
2022-08-03T12:51:32.368Z,2.40
2022-08-03T12:54:00.524Z,2.85
2022-08-03T12:56:28.388Z,2.40
2022-08-03T12:58:55.858Z,2.33
2022-08-03T13:01:25.257Z,2.22
2022-08-03T13:03:54.047Z,2.50
2022-08-03T13:06:23.147Z,2.28
2022-08-03T13:08:51.715Z,2.17
2022-08-03T13:11:23.564Z,2.20
2022-08-03T13:14:15.263Z,2.65
2022-08-03T13:16:46.894Z,2.40
2022-08-03T13:19:15.251Z,2.08
2022-08-03T13:22:01.690Z,2.47
2022-08-03T13:24:32.200Z,2.63
2022-08-03T13:27:00.112Z,1.83
2022-08-03T13:29:27.557Z,2.17
2022-08-03T13:31:55.021Z,2.28
2022-08-03T13:34:23.826Z,2.30
2022-08-03T13:37:10.185Z,2.42
2022-08-03T13:39:57.882Z,2.30
2022-08-03T13:42:25.850Z,2.53
2022-08-03T13:44:53.338Z,2.70
2022-08-03T13:47:21.272Z,1.90
2022-08-03T13:49:59.610Z,2.38
2022-08-03T13:52:28.439Z,2.20
2022-08-03T13:54:55.921Z,2.42
2022-08-03T13:58:11.928Z,2.17
2022-08-03T14:00:11.096Z,2.25
2022-08-03T14:02:38.659Z,2.25
2022-08-03T14:05:06.591Z,2.00
2022-08-03T14:07:34.102Z,2.10
2022-08-03T14:10:02.022Z,2.33
2022-08-03T14:12:29.579Z,2.45
2022-08-03T14:14:58.386Z,2.40
2022-08-03T14:17:37.467Z,2.17
2022-08-03T14:20:36.684Z,2.38
2022-08-03T14:22:58.017Z,2.35
2022-08-03T14:25:25.386Z,2.20
2022-08-03T14:27:52.930Z,2.33
2022-08-03T14:30:20.488Z,2.22
2022-08-03T14:32:47.935Z,2.22
2022-08-03T14:35:15.559Z,2.33
2022-08-03T14:37:42.984Z,2.53
2022-08-03T14:40:10.492Z,2.40
2022-08-03T14:42:38.011Z,2.05
2022-08-03T14:45:09.440Z,2.13
2022-08-03T14:50:29.596Z,2.35
2022-08-03T14:50:42.086Z,2.40
2022-08-03T14:53:13.047Z,2.33
2022-08-03T14:55:49.959Z,2.17
2022-08-03T14:58:21.553Z,2.20
2022-08-03T15:00:49.796Z,2.50
2022-08-03T15:03:20.420Z,2.30
2022-08-03T15:05:48.155Z,2.40
2022-08-03T15:08:15.590Z,2.22
2022-08-03T15:10:44.549Z,2.50
2022-08-03T15:13:13.463Z,2.30
2022-08-03T15:15:41.573Z,2.33
2022-08-03T15:18:09.340Z,2.47
2022-08-03T15:20:44.473Z,1.80
2022-08-03T15:23:13.246Z,2.13
2022-08-03T15:26:27.969Z,2.38
2022-08-03T15:28:28.154Z,1.85
2022-08-03T15:30:55.599Z,2.13
2022-08-03T15:33:23.008Z,2.10
2022-08-03T15:35:50.479Z,2.70
2022-08-03T15:38:17.972Z,2.30
2022-08-03T15:40:45.666Z,2.20
2022-08-03T15:43:13.134Z,2.20
2022-08-03T15:45:40.721Z,2.10
2022-08-03T15:48:09.484Z,2.63
2022-08-03T15:50:37.170Z,2.33
2022-08-03T15:53:05.003Z,2.28
2022-08-03T15:55:32.847Z,2.30
2022-08-03T15:59:10.685Z,2.35
2022-08-03T16:00:50.075Z,2.35
2022-08-03T16:03:17.530Z,2.20
2022-08-03T16:05:44.989Z,1.85
2022-08-03T16:08:13.992Z,2.17
2022-08-03T16:10:41.717Z,2.28
2022-08-03T16:13:09.188Z,2.45
2022-08-03T16:15:38.997Z,2.63
2022-08-03T16:18:07.150Z,1.90
2022-08-03T16:20:35.061Z,2.28
2022-08-03T16:23:11.545Z,2.20
2022-08-03T16:25:49.097Z,2.38
2022-08-03T16:28:17.498Z,2.50
2022-08-03T16:30:45.739Z,2.08
2022-08-03T16:33:16.807Z,2.20
2022-08-03T16:35:45.684Z,2.22
2022-08-03T16:38:18.573Z,2.10
2022-08-03T16:40:47.269Z,2.05
2022-08-03T16:43:18.515Z,2.10
2022-08-03T16:45:47.393Z,2.10
2022-08-03T16:48:18.489Z,2.20
2022-08-03T16:50:46.308Z,2.35
2022-08-03T16:53:16.343Z,2.83
2022-08-03T16:55:54.232Z,2.65
2022-08-03T16:58:34.401Z,2.42
2022-08-03T17:01:22.205Z,2.38
2022-08-03T17:04:01.576Z,2.53
2022-08-03T17:06:35.510Z,2.45
2022-08-03T17:09:14.066Z,2.20
2022-08-03T17:11:43.913Z,2.40
2022-08-03T17:14:12.700Z,2.33
2022-08-03T17:16:40.442Z,2.38
2022-08-03T17:19:21.486Z,2.55
2022-08-03T17:21:55.058Z,2.58
2022-08-03T17:24:31.787Z,2.35
2022-08-03T17:27:01.722Z,2.55
2022-08-03T17:29:30.677Z,2.42
2022-08-03T17:31:58.302Z,2.70
2022-08-03T17:34:26.696Z,2.30
2022-08-03T17:37:05.759Z,2.33
2022-08-03T17:39:57.612Z,2.33
2022-08-03T17:42:30.769Z,2.90
2022-08-03T17:45:02.403Z,2.50
2022-08-03T17:47:41.865Z,2.40
2022-08-03T17:50:25.100Z,2.70
2022-08-03T17:53:15.630Z,2.42
2022-08-03T17:55:59.587Z,2.90
2022-08-03T17:58:58.869Z,2.60
2022-08-03T18:02:05.657Z,2.50
2022-08-03T18:04:42.698Z,2.30
2022-08-03T18:07:12.663Z,2.60
2022-08-03T18:10:03.389Z,2.22
2022-08-03T18:12:29.906Z,2.58
2022-08-03T18:15:01.487Z,2.40
2022-08-03T18:17:55.077Z,2.65
2022-08-03T18:23:24.896Z,2.60
2022-08-03T18:26:00.870Z,2.63
2022-08-03T18:28:28.987Z,2.67
2022-08-03T18:30:57.729Z,2.72
2022-08-03T18:34:19.400Z,2.80
2022-08-03T18:36:21.994Z,2.40
2022-08-03T18:38:59.258Z,2.72
2022-08-03T18:41:32.293Z,2.78
2022-08-03T18:44:09.018Z,2.70
2022-08-03T18:46:49.816Z,2.55
2022-08-03T18:49:36.734Z,2.28
2022-08-03T18:52:12.414Z,2.67
2022-08-03T18:55:06.498Z,2.58
2022-08-03T18:58:01.009Z,2.45
2022-08-03T19:00:42.462Z,2.40
2022-08-03T19:03:20.599Z,2.67
2022-08-03T19:06:05.940Z,2.83
2022-08-03T19:08:37.070Z,2.78
2022-08-03T19:11:06.098Z,2.67
2022-08-03T19:13:40.549Z,2.80
2022-08-03T19:16:18.201Z,2.85
2022-08-03T19:18:48.518Z,2.55
2022-08-03T19:21:16.785Z,3.35
2022-08-03T19:23:48.266Z,3.20
2022-08-03T19:26:30.535Z,2.83
2022-08-03T19:28:59.559Z,2.85
2022-08-03T19:31:30.976Z,3.15
2022-08-03T19:33:59.955Z,2.70
2022-08-03T19:36:29.026Z,2.70
2022-08-03T19:38:58.144Z,2.70
2022-08-03T19:41:31.184Z,2.45
2022-08-03T19:44:11.582Z,2.50
2022-08-03T19:46:50.288Z,2.70
2022-08-03T19:49:17.776Z,2.70
2022-08-03T19:52:01.367Z,3.20
2022-08-03T19:54:45.644Z,3.00
2022-08-03T19:57:23.576Z,2.95
2022-08-03T19:59:51.922Z,2.90
2022-08-03T20:02:26.015Z,2.55
2022-08-03T20:04:54.857Z,3.90
2022-08-03T20:07:23.730Z,3.63
2022-08-03T20:12:40.184Z,2.95
2022-08-03T20:15:09.205Z,2.80
2022-08-03T20:17:54.468Z,2.83
2022-08-03T20:20:25.934Z,2.67
2022-08-03T20:22:54.106Z,2.80
2022-08-03T20:25:38.125Z,2.72
2022-08-03T20:28:14.290Z,3.28
2022-08-03T20:30:43.598Z,3.08
2022-08-03T20:33:11.235Z,3.03
2022-08-03T20:35:41.995Z,3.17
2022-08-03T20:38:13.264Z,2.88
2022-08-03T20:40:41.108Z,2.78
2022-08-03T20:43:09.388Z,2.58
2022-08-03T20:45:59.762Z,2.92
2022-08-03T20:48:26.430Z,2.80
2022-08-03T20:50:56.909Z,3.10
2022-08-03T20:53:57.243Z,2.90
2022-08-03T20:56:13.159Z,3.08
2022-08-03T20:58:42.994Z,2.92
2022-08-03T21:01:27.889Z,2.70
2022-08-03T21:04:09.471Z,3.10
2022-08-03T21:06:40.758Z,3.17
2022-08-03T21:09:17.994Z,2.83
2022-08-03T21:11:48.763Z,3.17
2022-08-03T21:13:03.563Z,2.97
2022-08-03T21:13:04.819Z,2.95
2022-08-03T21:14:16.556Z,3.15
2022-08-03T21:16:45.682Z,2.97
2022-08-03T21:19:13.357Z,3.38
2022-08-03T21:21:42.244Z,2.80
2022-08-03T21:24:11.305Z,3.20
2022-08-03T21:26:39.793Z,3.10
2022-08-03T21:29:08.280Z,2.97
2022-08-03T21:31:36.309Z,2.85
2022-08-03T21:34:05.333Z,2.95
2022-08-03T21:36:34.868Z,2.88
2022-08-03T21:39:03.067Z,3.20
2022-08-03T21:41:31.527Z,3.20
2022-08-03T21:43:59.841Z,3.03
2022-08-03T21:46:28.865Z,2.90
2022-08-03T21:50:05.893Z,3.00
2022-08-03T21:51:46.020Z,2.95
2022-08-03T21:54:14.045Z,3.08
2022-08-03T21:56:42.305Z,3.10
2022-08-03T21:59:16.000Z,2.97
2022-08-03T22:01:45.661Z,2.78
2022-08-03T22:04:50.410Z,3.05
2022-08-03T22:07:06.126Z,3.03
2022-08-03T22:09:35.379Z,3.05
2022-08-03T22:12:02.905Z,3.05
2022-08-03T22:14:32.515Z,3.13
2022-08-03T22:17:00.215Z,3.25
2022-08-03T22:19:27.732Z,2.78
2022-08-03T22:21:55.349Z,2.70
2022-08-03T22:24:24.462Z,2.70
2022-08-03T22:27:10.580Z,2.70
2022-08-03T22:29:40.956Z,2.70
2022-08-03T22:32:08.442Z,2.95
2022-08-03T22:34:37.199Z,3.00
2022-08-03T22:37:05.607Z,3.25
2022-08-03T22:39:34.087Z,3.17
2022-08-03T22:42:02.013Z,3.13
2022-08-03T22:44:30.117Z,3.38
2022-08-03T22:46:57.827Z,3.10
2022-08-03T22:49:25.398Z,3.40
2022-08-03T22:51:52.898Z,2.80
2022-08-03T22:54:20.321Z,3.00
2022-08-03T22:56:47.981Z,2.72
2022-08-03T22:59:41.378Z,2.70
2022-08-03T23:02:20.183Z,2.67
2022-08-03T23:04:53.351Z,2.92
2022-08-03T23:07:22.586Z,3.30
2022-08-03T23:09:50.407Z,3.03
2022-08-03T23:12:20.897Z,3.15
2022-08-03T23:14:50.641Z,3.03
2022-08-03T23:17:18.248Z,2.97
2022-08-03T23:19:45.717Z,2.95
2022-08-03T23:22:27.657Z,3.10
2022-08-03T23:24:57.943Z,2.88
2022-08-03T23:27:27.485Z,2.80
2022-08-03T23:29:55.220Z,2.70
2022-08-03T23:32:23.161Z,2.85
2022-08-03T23:35:10.164Z,3.30
2022-08-03T23:38:04.006Z,2.70
2022-08-03T23:40:31.943Z,3.20
2022-08-03T23:43:00.934Z,3.20
2022-08-03T23:45:28.686Z,2.72
2022-08-03T23:47:56.193Z,3.13
2022-08-03T23:50:24.065Z,2.78
2022-08-03T23:52:54.473Z,3.10
2022-08-03T23:55:21.814Z,2.90
2022-08-03T23:58:10.696Z,3.03
